Time;durP1;ratioP1;P1;durP2;ratioP2;P2;SDS_P1;SDS_P2;PMS_P1;PMS_P2;Temp;Humidity;BMP_temperature;BMP_pressure;BME280_temperature;BME280_humidity;BME280_pressure;Samples;Min_cycle;Max_cycle;Signal;HPM_P1;HPM_P2
2023/10/28 00:00:58;;;;;;;0.10;0.10;;;;;;;;;;5089058;28;20063;-80
2023/10/28 00:03:25;;;;;;;0.10;0.10;;;;;;;;;;5086694;28;20126;-80
2023/10/28 00:05:51;;;;;;;0.10;0.10;;;;;;;;;;5083537;28;20041;-80
2023/10/28 00:08:18;;;;;;;0.10;0.10;;;;;;;;;;5082211;28;20048;-80
2023/10/28 00:10:48;;;;;;;0.00;0.00;;;;;;;;;;5083888;28;20108;-80
2023/10/28 00:13:14;;;;;;;0.10;0.10;;;;;;;;;;5088024;28;20071;-80
2023/10/28 00:15:41;;;;;;;0.10;0.10;;;;;;;;;;5084469;28;20103;-80
2023/10/28 00:18:08;;;;;;;0.10;0.10;;;;;;;;;;5086289;28;20048;-79
2023/10/28 00:20:36;;;;;;;0.10;0.10;;;;;;;;;;5104020;28;20037;-80
2023/10/28 00:23:03;;;;;;;0.10;0.10;;;;;;;;;;5085935;28;20067;-80
2023/10/28 00:25:31;;;;;;;0.10;0.10;;;;;;;;;;5086093;28;20057;-79
2023/10/28 00:27:58;;;;;;;0.10;0.10;;;;;;;;;;5086460;28;20037;-79
2023/10/28 00:30:25;;;;;;;0.10;0.10;;;;;;;;;;5086296;28;20056;-79
2023/10/28 00:32:52;;;;;;;0.10;0.10;;;;;;;;;;5088356;28;20041;-80
2023/10/28 00:35:22;;;;;;;0.17;0.17;;;;;;;;;;5086054;28;20060;-80
2023/10/28 00:37:49;;;;;;;0.10;0.10;;;;;;;;;;5099227;28;20052;-80
2023/10/28 00:40:17;;;;;;;0.10;0.10;;;;;;;;;;5085789;28;20098;-80
2023/10/28 00:42:45;;;;;;;0.10;0.10;;;;;;;;;;5104381;28;20071;-80
2023/10/28 00:45:13;;;;;;;0.00;0.00;;;;;;;;;;5087179;28;20032;-80
2023/10/28 00:47:44;;;;;;;0.10;0.10;;;;;;;;;;5087000;28;20075;-80
2023/10/28 00:50:10;;;;;;;;;;;;;;;;;;5086224;28;20056;-80
2023/10/28 00:52:39;;;;;;;0.10;0.10;;;;;;;;;;5090527;28;45564;-80
2023/10/28 00:55:10;;;;;;;0.10;0.10;;;;;;;;;;5090570;28;20052;-80
2023/10/28 00:57:36;;;;;;;;;;;;;;;;;;5087643;28;20053;-80
2023/10/28 01:00:06;;;;;;;0.10;0.10;;;;;;;;;;5089577;28;46179;-79
2023/10/28 01:02:35;;;;;;;0.10;0.10;;;;;;;;;;5099253;28;20087;-79
2023/10/28 01:05:02;;;;;;;0.10;0.10;;;;;;;;;;5076092;28;20061;-79
2023/10/28 01:07:31;;;;;;;0.10;0.10;;;;;;;;;;5078143;28;20064;-79
2023/10/28 01:09:58;;;;;;;0.10;0.10;;;;;;;;;;5090861;28;20049;-79
2023/10/28 01:12:26;;;;;;;0.10;0.10;;;;;;;;;;5099198;28;20053;-79
2023/10/28 01:14:53;;;;;;;0.98;0.85;;;;;;;;;;5096280;28;20041;-79
2023/10/28 01:17:25;;;;;;;0.30;0.30;;;;;;;;;;5078499;28;20044;-79
2023/10/28 01:19:56;;;;;;;0.10;0.10;;;;;;;;;;5074852;28;20052;-79
2023/10/28 01:22:26;;;;;;;0.10;0.10;;;;;;;;;;5078226;28;20071;-79
2023/10/28 01:24:53;;;;;;;0.00;0.00;;;;;;;;;;5073457;28;20048;-79
2023/10/28 01:27:19;;;;;;;0.10;0.10;;;;;;;;;;5096847;28;20549;-79
2023/10/28 01:29:46;;;;;;;0.10;0.10;;;;;;;;;;5075099;28;20079;-79
2023/10/28 01:32:14;;;;;;;0.00;0.00;;;;;;;;;;5097052;28;20136;-79
2023/10/28 01:34:47;;;;;;;0.10;0.10;;;;;;;;;;5078062;28;20056;-79
2023/10/28 01:37:16;;;;;;;0.10;0.10;;;;;;;;;;5078225;28;20053;-79
2023/10/28 01:39:43;;;;;;;0.10;0.10;;;;;;;;;;5078310;28;20048;-79
2023/10/28 01:42:13;;;;;;;0.00;0.00;;;;;;;;;;5080995;28;20100;-79
2023/10/28 01:44:39;;;;;;;0.00;0.00;;;;;;;;;;5075076;28;20502;-79
2023/10/28 01:47:08;;;;;;;0.00;0.00;;;;;;;;;;5073165;28;20037;-79
2023/10/28 01:49:38;;;;;;;0.35;0.35;;;;;;;;;;5076964;28;20143;-79
2023/10/28 01:52:07;;;;;;;0.10;0.10;;;;;;;;;;5088135;28;20037;-79
2023/10/28 01:54:35;;;;;;;0.03;0.03;;;;;;;;;;5095643;28;20852;-79
2023/10/28 01:57:05;;;;;;;0.10;0.10;;;;;;;;;;5093590;28;20064;-79
2023/10/28 01:59:32;;;;;;;0.10;0.10;;;;;;;;;;5082573;28;20092;-79
2023/10/28 02:02:01;;;;;;;0.10;0.10;;;;;;;;;;5107385;28;20037;-80
2023/10/28 02:04:28;;;;;;;0.10;0.10;;;;;;;;;;5083385;28;20056;-80
2023/10/28 02:06:55;;;;;;;0.10;0.10;;;;;;;;;;5082323;28;20028;-80
2023/10/28 02:09:21;;;;;;;0.10;0.10;;;;;;;;;;5088284;28;20045;-80
2023/10/28 02:11:49;;;;;;;0.10;0.10;;;;;;;;;;5088073;28;20049;-79
2023/10/28 02:14:16;;;;;;;0.10;0.10;;;;;;;;;;5089947;28;20048;-80
2023/10/28 02:16:42;;;;;;;0.10;0.10;;;;;;;;;;5083736;28;20912;-80
2023/10/28 02:19:10;;;;;;;0.00;0.00;;;;;;;;;;5104588;28;20100;-80
2023/10/28 02:21:36;;;;;;;0.10;0.10;;;;;;;;;;5089759;28;20043;-80
2023/10/28 02:24:03;;;;;;;0.10;0.10;;;;;;;;;;5104455;28;20048;-80
2023/10/28 02:26:30;;;;;;;0.55;0.40;;;;;;;;;;5086092;28;20045;-80
2023/10/28 02:28:56;;;;;;;0.10;0.10;;;;;;;;;;5084111;28;20049;-80
2023/10/28 02:31:23;;;;;;;0.08;0.08;;;;;;;;;;5084034;22;20140;-79
2023/10/28 02:33:49;;;;;;;0.10;0.10;;;;;;;;;;5091165;28;20550;-78
2023/10/28 02:36:15;;;;;;;0.10;0.10;;;;;;;;;;5089360;28;20534;-78
2023/10/28 02:38:42;;;;;;;0.30;0.30;;;;;;;;;;5085045;28;20055;-78
2023/10/28 02:41:08;;;;;;;0.10;0.10;;;;;;;;;;5091879;28;20048;-79
2023/10/28 02:43:35;;;;;;;0.00;0.00;;;;;;;;;;5080101;28;20438;-78
2023/10/28 02:46:03;;;;;;;0.10;0.10;;;;;;;;;;5087661;28;20466;-79
2023/10/28 02:48:29;;;;;;;0.10;0.10;;;;;;;;;;5070819;28;20053;-79
2023/10/28 02:51:01;;;;;;;0.10;0.10;;;;;;;;;;5072681;28;20052;-78
2023/10/28 02:53:28;;;;;;;0.10;0.10;;;;;;;;;;5090230;28;20136;-78
2023/10/28 02:55:54;;;;;;;0.10;0.10;;;;;;;;;;5071895;28;20068;-79
2023/10/28 02:58:21;;;;;;;0.10;0.10;;;;;;;;;;5089869;28;20126;-79
2023/10/28 03:00:47;;;;;;;0.10;0.10;;;;;;;;;;5086753;28;20056;-79
2023/10/28 03:03:13;;;;;;;0.10;0.10;;;;;;;;;;5096784;28;20056;-79
2023/10/28 03:05:40;;;;;;;0.10;0.10;;;;;;;;;;5089597;28;20056;-79
2023/10/28 03:08:06;;;;;;;0.00;0.00;;;;;;;;;;5090403;28;20202;-78
2023/10/28 03:10:33;;;;;;;0.10;0.10;;;;;;;;;;5086658;28;20052;-78
2023/10/28 03:12:59;;;;;;;0.10;0.10;;;;;;;;;;5087342;28;20051;-78
2023/10/28 03:15:27;;;;;;;0.10;0.10;;;;;;;;;;5083267;28;20053;-78
2023/10/28 03:17:53;;;;;;;0.10;0.10;;;;;;;;;;5071269;28;20122;-78
2023/10/28 03:20:20;;;;;;;0.10;0.10;;;;;;;;;;5077649;28;20048;-78
2023/10/28 03:22:47;;;;;;;0.10;0.10;;;;;;;;;;5072529;28;20057;-79
2023/10/28 03:25:13;;;;;;;0.20;0.20;;;;;;;;;;5082284;28;20048;-78
2023/10/28 03:27:40;;;;;;;0.00;0.00;;;;;;;;;;5072425;28;20492;-78
2023/10/28 03:30:06;;;;;;;0.10;0.10;;;;;;;;;;5090167;28;20110;-78
2023/10/28 03:32:33;;;;;;;0.20;0.20;;;;;;;;;;5071935;28;20158;-78
2023/10/28 03:34:59;;;;;;;0.10;0.10;;;;;;;;;;5089892;28;20147;-78
2023/10/28 03:37:26;;;;;;;0.10;0.10;;;;;;;;;;5091439;28;20065;-78
2023/10/28 03:39:53;;;;;;;0.00;0.00;;;;;;;;;;5089701;28;20139;-78
2023/10/28 03:42:19;;;;;;;0.32;0.32;;;;;;;;;;5089467;28;20055;-79
2023/10/28 03:44:46;;;;;;;0.10;0.10;;;;;;;;;;5069265;28;20061;-78
2023/10/28 03:47:13;;;;;;;4.10;1.13;;;;;;;;;;5087077;28;20078;-78
2023/10/28 03:49:39;;;;;;;0.40;0.40;;;;;;;;;;5082279;28;20501;-79
2023/10/28 03:52:06;;;;;;;0.22;0.22;;;;;;;;;;5076908;28;20049;-78
2023/10/28 03:54:33;;;;;;;0.10;0.10;;;;;;;;;;5067865;28;20493;-78
2023/10/28 03:56:59;;;;;;;0.10;0.10;;;;;;;;;;5092225;28;20067;-78
2023/10/28 03:59:25;;;;;;;0.08;0.08;;;;;;;;;;5088528;28;20049;-78
2023/10/28 04:01:52;;;;;;;0.10;0.10;;;;;;;;;;5086287;28;20121;-78
2023/10/28 04:04:19;;;;;;;0.32;0.15;;;;;;;;;;5087310;28;20056;-78
2023/10/28 04:06:45;;;;;;;0.10;0.10;;;;;;;;;;5081625;28;20596;-78
2023/10/28 04:09:14;;;;;;;0.10;0.10;;;;;;;;;;5072538;28;20052;-78
2023/10/28 04:11:40;;;;;;;0.10;0.10;;;;;;;;;;5076846;28;20076;-79
2023/10/28 04:14:07;;;;;;;0.10;0.10;;;;;;;;;;5086117;28;20056;-79
2023/10/28 04:16:33;;;;;;;0.22;0.22;;;;;;;;;;5085581;28;20057;-78
2023/10/28 04:19:00;;;;;;;0.10;0.10;;;;;;;;;;5085641;28;20103;-78
2023/10/28 04:21:29;;;;;;;0.10;0.10;;;;;;;;;;5074831;28;20963;-78
2023/10/28 04:23:55;;;;;;;0.10;0.10;;;;;;;;;;5075117;28;20050;-79
2023/10/28 04:26:21;;;;;;;0.10;0.10;;;;;;;;;;5095453;28;20052;-78
2023/10/28 04:28:48;;;;;;;0.10;0.10;;;;;;;;;;5089753;28;20045;-78
2023/10/28 04:31:15;;;;;;;0.10;0.10;;;;;;;;;;5073135;28;20104;-78
2023/10/28 04:33:41;;;;;;;0.10;0.10;;;;;;;;;;5090083;28;20144;-78
2023/10/28 04:36:09;;;;;;;0.10;0.10;;;;;;;;;;5089372;28;20075;-79
2023/10/28 04:38:39;;;;;;;0.10;0.10;;;;;;;;;;5083135;28;20106;-78
2023/10/28 04:41:07;;;;;;;0.10;0.10;;;;;;;;;;5093390;28;20056;-78
2023/10/28 04:43:35;;;;;;;0.10;0.10;;;;;;;;;;5093917;28;20110;-78
2023/10/28 04:46:01;;;;;;;0.15;0.15;;;;;;;;;;5098640;28;20130;-78
2023/10/28 04:48:28;;;;;;;0.20;0.20;;;;;;;;;;5092696;28;20040;-79
2023/10/28 04:50:55;;;;;;;0.10;0.10;;;;;;;;;;5093770;28;20033;-79
2023/10/28 04:53:24;;;;;;;0.10;0.10;;;;;;;;;;5091098;28;20582;-79
2023/10/28 04:55:51;;;;;;;0.10;0.10;;;;;;;;;;5094255;28;20106;-79
2023/10/28 04:58:18;;;;;;;0.10;0.10;;;;;;;;;;5076176;28;20055;-78
2023/10/28 05:00:45;;;;;;;0.10;0.10;;;;;;;;;;5094355;28;20048;-78
2023/10/28 05:03:12;;;;;;;0.00;0.00;;;;;;;;;;5074563;28;20067;-78
2023/10/28 05:05:39;;;;;;;0.10;0.10;;;;;;;;;;5091322;28;20044;-79
2023/10/28 05:08:05;;;;;;;0.10;0.10;;;;;;;;;;5093567;28;20355;-79
2023/10/28 05:10:32;;;;;;;0.10;0.10;;;;;;;;;;5093080;28;20686;-79
2023/10/28 05:12:59;;;;;;;0.10;0.10;;;;;;;;;;5092785;28;20057;-79
2023/10/28 05:15:25;;;;;;;0.10;0.10;;;;;;;;;;5074297;28;20048;-78
2023/10/28 05:17:52;;;;;;;0.10;0.10;;;;;;;;;;5097095;28;20100;-78
2023/10/28 05:20:18;;;;;;;0.10;0.10;;;;;;;;;;5091695;28;20048;-79
2023/10/28 05:22:45;;;;;;;0.10;0.10;;;;;;;;;;5073771;28;20137;-78
2023/10/28 05:25:12;;;;;;;1.13;0.57;;;;;;;;;;5091268;28;20049;-79
2023/10/28 05:27:39;;;;;;;0.10;0.10;;;;;;;;;;5075870;28;20068;-79
2023/10/28 05:30:06;;;;;;;0.10;0.10;;;;;;;;;;5090939;28;20048;-79
2023/10/28 05:32:32;;;;;;;0.10;0.10;;;;;;;;;;5093139;28;20052;-79
2023/10/28 05:34:59;;;;;;;0.10;0.10;;;;;;;;;;5093874;28;20055;-79
2023/10/28 05:37:27;;;;;;;0.10;0.10;;;;;;;;;;5090940;28;20055;-79
2023/10/28 05:39:53;;;;;;;0.10;0.10;;;;;;;;;;5087465;28;20738;-79
2023/10/28 05:42:20;;;;;;;0.10;0.10;;;;;;;;;;5091957;28;20056;-79
2023/10/28 05:44:47;;;;;;;0.10;0.10;;;;;;;;;;5076369;28;20490;-79
2023/10/28 05:47:13;;;;;;;0.10;0.10;;;;;;;;;;5093935;28;20122;-79
2023/10/28 05:49:40;;;;;;;0.55;0.55;;;;;;;;;;5093646;28;20082;-79
2023/10/28 05:52:07;;;;;;;0.10;0.10;;;;;;;;;;5076806;28;20108;-79
2023/10/28 05:54:33;;;;;;;0.10;0.10;;;;;;;;;;5090374;28;20143;-79
2023/10/28 05:57:00;;;;;;;0.10;0.10;;;;;;;;;;5092625;28;20044;-79
2023/10/28 05:59:26;;;;;;;0.10;0.10;;;;;;;;;;5092585;28;20158;-80
2023/10/28 06:01:53;;;;;;;0.10;0.10;;;;;;;;;;5094132;28;20114;-79
2023/10/28 06:04:21;;;;;;;0.10;0.10;;;;;;;;;;5075671;28;20108;-80
2023/10/28 06:06:48;;;;;;;0.10;0.10;;;;;;;;;;5075524;28;20052;-79
2023/10/28 06:09:15;;;;;;;0.10;0.10;;;;;;;;;;5088732;28;20076;-79
2023/10/28 06:11:41;;;;;;;0.40;0.40;;;;;;;;;;5074147;28;20060;-79
2023/10/28 06:14:08;;;;;;;0.55;0.45;;;;;;;;;;5094520;28;20040;-80
2023/10/28 06:16:35;;;;;;;0.43;0.38;;;;;;;;;;5089520;28;20048;-79
2023/10/28 06:19:02;;;;;;;0.10;0.10;;;;;;;;;;5091504;28;20051;-79
2023/10/28 06:21:28;;;;;;;0.10;0.10;;;;;;;;;;5090051;28;20092;-79
2023/10/28 06:23:54;;;;;;;0.10;0.10;;;;;;;;;;5084846;28;20053;-79
2023/10/28 06:26:21;;;;;;;0.10;0.10;;;;;;;;;;5091293;28;20083;-81
2023/10/28 06:28:48;;;;;;;0.10;0.10;;;;;;;;;;5072169;28;20064;-79
2023/10/28 06:31:15;;;;;;;0.10;0.10;;;;;;;;;;5090619;28;20926;-79
2023/10/28 06:33:41;;;;;;;0.20;0.20;;;;;;;;;;5090320;28;20144;-79
2023/10/28 06:36:08;;;;;;;0.10;0.10;;;;;;;;;;5088277;28;20072;-79
2023/10/28 06:38:35;;;;;;;0.10;0.10;;;;;;;;;;5090100;28;20477;-79
2023/10/28 06:41:01;;;;;;;0.10;0.10;;;;;;;;;;5089108;28;20056;-79
2023/10/28 06:43:28;;;;;;;0.10;0.10;;;;;;;;;;5066781;28;20060;-79
2023/10/28 06:45:54;;;;;;;0.10;0.10;;;;;;;;;;5084943;28;20895;-79
2023/10/28 06:48:20;;;;;;;0.10;0.10;;;;;;;;;;5068405;28;20057;-78
2023/10/28 06:50:48;;;;;;;0.10;0.10;;;;;;;;;;5086355;28;20044;-78
2023/10/28 06:53:14;;;;;;;0.10;0.10;;;;;;;;;;5068349;28;20248;-78
2023/10/28 06:55:41;;;;;;;0.10;0.10;;;;;;;;;;5087379;28;20053;-78
2023/10/28 06:58:07;;;;;;;0.10;0.10;;;;;;;;;;5085486;28;20059;-78
2023/10/28 07:00:33;;;;;;;0.10;0.10;;;;;;;;;;5085208;28;20060;-78
2023/10/28 07:03:00;;;;;;;0.10;0.10;;;;;;;;;;5084765;28;20090;-78
2023/10/28 07:05:27;;;;;;;0.10;0.10;;;;;;;;;;5088244;28;20102;-78
2023/10/28 07:07:54;;;;;;;0.10;0.10;;;;;;;;;;5087460;28;20103;-78
2023/10/28 07:10:22;;;;;;;0.20;0.20;;;;;;;;;;5086348;28;20048;-78
2023/10/28 07:12:49;;;;;;;0.10;0.10;;;;;;;;;;5083133;28;20090;-78
2023/10/28 07:15:16;;;;;;;0.10;0.10;;;;;;;;;;5064289;28;21317;-78
2023/10/28 07:17:43;;;;;;;0.10;0.10;;;;;;;;;;5083071;28;20477;-78
2023/10/28 07:20:10;;;;;;;0.10;0.10;;;;;;;;;;5070904;28;20056;-78
2023/10/28 07:22:36;;;;;;;0.10;0.10;;;;;;;;;;5066937;28;20056;-78
2023/10/28 07:25:04;;;;;;;0.10;0.10;;;;;;;;;;5067579;28;20142;-78
2023/10/28 07:27:31;;;;;;;0.60;0.60;;;;;;;;;;5083550;28;20063;-78
2023/10/28 07:29:59;;;;;;;0.10;0.10;;;;;;;;;;5084049;28;20044;-78
2023/10/28 07:32:25;;;;;;;0.10;0.10;;;;;;;;;;5085387;28;20056;-78
2023/10/28 07:34:52;;;;;;;0.10;0.10;;;;;;;;;;5082556;28;20102;-78
2023/10/28 07:37:18;;;;;;;0.10;0.10;;;;;;;;;;5083303;28;20048;-78
2023/10/28 07:39:45;;;;;;;0.10;0.10;;;;;;;;;;5079520;28;20053;-78
2023/10/28 07:42:11;;;;;;;0.10;0.10;;;;;;;;;;5082489;28;20035;-78
2023/10/28 07:44:39;;;;;;;0.10;0.10;;;;;;;;;;5085622;28;20522;-78
2023/10/28 07:47:07;;;;;;;0.10;0.10;;;;;;;;;;5081549;28;20056;-78
2023/10/28 07:49:34;;;;;;;0.10;0.10;;;;;;;;;;5065439;28;20052;-78
2023/10/28 07:52:00;;;;;;;0.10;0.10;;;;;;;;;;5068014;28;20095;-78
2023/10/28 07:54:27;;;;;;;0.10;0.10;;;;;;;;;;5080185;28;20106;-78
2023/10/28 07:56:53;;;;;;;0.10;0.10;;;;;;;;;;5083272;28;20100;-78
2023/10/28 07:59:21;;;;;;;0.10;0.10;;;;;;;;;;5076481;28;20302;-78
2023/10/28 08:01:47;;;;;;;0.10;0.10;;;;;;;;;;5087046;28;20044;-78
2023/10/28 08:04:14;;;;;;;0.10;0.10;;;;;;;;;;5077636;28;20049;-78
2023/10/28 08:06:41;;;;;;;0.10;0.10;;;;;;;;;;5084190;28;20056;-78
2023/10/28 08:09:08;;;;;;;0.10;0.10;;;;;;;;;;5083551;28;20118;-78
2023/10/28 08:11:35;;;;;;;0.10;0.10;;;;;;;;;;5087358;28;20053;-78
2023/10/28 08:14:03;;;;;;;0.10;0.10;;;;;;;;;;5085100;28;20053;-78
2023/10/28 08:16:30;;;;;;;0.10;0.10;;;;;;;;;;5082871;28;20045;-78
2023/10/28 08:18:58;;;;;;;0.20;0.20;;;;;;;;;;5086065;28;20194;-78
2023/10/28 08:21:25;;;;;;;0.10;0.10;;;;;;;;;;5084095;28;20506;-77
2023/10/28 08:23:51;;;;;;;0.10;0.10;;;;;;;;;;5080288;28;20094;-78
2023/10/28 08:26:18;;;;;;;0.10;0.10;;;;;;;;;;5081872;28;20147;-78
2023/10/28 08:28:50;;;;;;;0.45;0.45;;;;;;;;;;5062057;28;20044;-78
2023/10/28 08:31:17;;;;;;;0.10;0.10;;;;;;;;;;5088642;22;20179;-78
2023/10/28 08:33:43;;;;;;;0.10;0.10;;;;;;;;;;5078937;28;20049;-78
2023/10/28 08:36:10;;;;;;;1.45;0.63;;;;;;;;;;5081966;28;20052;-77
2023/10/28 08:38:37;;;;;;;0.10;0.10;;;;;;;;;;5082969;28;20524;-78
2023/10/28 08:41:04;;;;;;;0.10;0.10;;;;;;;;;;5100004;28;20059;-78
2023/10/28 08:43:36;;;;;;;0.10;0.10;;;;;;;;;;5103224;27;20084;-78
2023/10/28 08:46:04;;;;;;;0.10;0.10;;;;;;;;;;5094811;28;20142;-78
2023/10/28 08:48:32;;;;;;;0.10;0.10;;;;;;;;;;5097618;28;20766;-78
2023/10/28 08:51:00;;;;;;;0.10;0.10;;;;;;;;;;5104249;27;20150;-78
2023/10/28 08:53:26;;;;;;;0.10;0.10;;;;;;;;;;5098033;28;20228;-78
2023/10/28 08:55:53;;;;;;;0.20;0.20;;;;;;;;;;5101022;28;20052;-77
2023/10/28 08:58:21;;;;;;;0.10;0.10;;;;;;;;;;5101677;27;20065;-78
2023/10/28 09:00:48;;;;;;;0.10;0.10;;;;;;;;;;5097326;27;20059;-78
2023/10/28 09:03:22;;;;;;;0.10;0.10;;;;;;;;;;5101134;28;20502;-78
2023/10/28 09:05:51;;;;;;;0.20;0.20;;;;;;;;;;5095360;28;20569;-78
2023/10/28 09:08:19;;;;;;;0.10;0.10;;;;;;;;;;5099727;28;20626;-78
2023/10/28 09:10:46;;;;;;;0.10;0.10;;;;;;;;;;5102513;28;20059;-78
2023/10/28 09:13:13;;;;;;;0.10;0.10;;;;;;;;;;5098680;27;20132;-78
2023/10/28 09:15:40;;;;;;;0.10;0.10;;;;;;;;;;5105727;27;20785;-78
2023/10/28 09:18:08;;;;;;;0.10;0.10;;;;;;;;;;5107072;27;20048;-78
2023/10/28 09:20:37;;;;;;;0.20;0.20;;;;;;;;;;5108177;27;20059;-78
2023/10/28 09:23:04;;;;;;;0.10;0.10;;;;;;;;;;5102594;28;20045;-78
2023/10/28 09:25:30;;;;;;;0.10;0.10;;;;;;;;;;5100157;28;20056;-78
2023/10/28 09:27:57;;;;;;;0.10;0.10;;;;;;;;;;5103752;28;20055;-78
2023/10/28 09:30:23;;;;;;;0.10;0.10;;;;;;;;;;5098899;28;20060;-79
2023/10/28 09:32:52;;;;;;;0.10;0.10;;;;;;;;;;5105566;27;20135;-78
2023/10/28 09:35:19;;;;;;;0.10;0.10;;;;;;;;;;5105942;28;20052;-78
2023/10/28 09:37:45;;;;;;;0.10;0.10;;;;;;;;;;5098853;28;20509;-78
2023/10/28 09:40:17;;;;;;;0.10;0.10;;;;;;;;;;5098071;28;20125;-78
2023/10/28 09:42:46;;;;;;;0.10;0.10;;;;;;;;;;5100036;28;20056;-78
2023/10/28 09:45:14;;;;;;;0.10;0.10;;;;;;;;;;5105184;28;20060;-78
2023/10/28 09:47:49;;;;;;;0.10;0.10;;;;;;;;;;5109195;28;20159;-78
2023/10/28 09:50:20;;;;;;;0.10;0.10;;;;;;;;;;5113388;27;20105;-79
2023/10/28 09:52:51;;;;;;;0.10;0.10;;;;;;;;;;5100977;28;20159;-78
2023/10/28 09:55:21;;;;;;;0.30;0.30;;;;;;;;;;5100098;28;20064;-78
2023/10/28 09:58:01;;;;;;;0.10;0.10;;;;;;;;;;5096179;28;20048;-78
2023/10/28 10:00:29;;;;;;;0.10;0.10;;;;;;;;;;5095889;28;20161;-78
2023/10/28 10:03:35;;;;;;;0.10;0.10;;;;;;;;;;5094174;28;20052;-78
2023/10/28 10:06:05;;;;;;;0.10;0.10;;;;;;;;;;5040321;28;20527;-78
2023/10/28 10:08:45;;;;;;;0.10;0.10;;;;;;;;;;5021596;28;20423;-78
2023/10/28 10:11:20;;;;;;;0.10;0.10;;;;;;;;;;5065834;28;20060;-78
2023/10/28 10:13:50;;;;;;;0.10;0.10;;;;;;;;;;5091319;28;20139;-78
2023/10/28 10:16:36;;;;;;;0.10;0.10;;;;;;;;;;5103312;28;20660;-78
2023/10/28 10:19:05;;;;;;;0.10;0.10;;;;;;;;;;5100103;28;20139;-78
2023/10/28 10:21:35;;;;;;;0.10;0.10;;;;;;;;;;5105608;28;20056;-78
2023/10/28 10:24:07;;;;;;;0.15;0.15;;;;;;;;;;5109699;27;20096;-78
2023/10/28 10:26:39;;;;;;;0.10;0.10;;;;;;;;;;5105850;27;20126;-78
2023/10/28 10:29:08;;;;;;;0.10;0.10;;;;;;;;;;5093867;28;20486;-78
2023/10/28 10:31:36;;;;;;;0.10;0.10;;;;;;;;;;5098817;28;20063;-77
2023/10/28 10:34:08;;;;;;;0.10;0.10;;;;;;;;;;5100096;28;20143;-78
2023/10/28 10:36:40;;;;;;;0.10;0.10;;;;;;;;;;5104735;28;20537;-79
2023/10/28 10:39:15;;;;;;;0.32;0.32;;;;;;;;;;5102292;28;21188;-78
2023/10/28 10:41:42;;;;;;;0.10;0.10;;;;;;;;;;5104047;27;20502;-78
2023/10/28 10:44:22;;;;;;;0.10;0.10;;;;;;;;;;5107167;28;20048;-78
2023/10/28 10:46:48;;;;;;;0.10;0.10;;;;;;;;;;5098783;28;20518;-78
2023/10/28 10:49:15;;;;;;;0.10;0.10;;;;;;;;;;5104858;28;20286;-78
2023/10/28 10:51:42;;;;;;;0.10;0.10;;;;;;;;;;5107406;27;20605;-78
2023/10/28 10:54:09;;;;;;;0.10;0.10;;;;;;;;;;5107137;28;20052;-78
2023/10/28 10:56:36;;;;;;;5.68;1.38;;;;;;;;;;5105863;28;20048;-78
2023/10/28 10:59:03;;;;;;;0.20;0.20;;;;;;;;;;5114645;27;20086;-78
2023/10/28 11:01:33;;;;;;;0.10;0.10;;;;;;;;;;5102035;28;20608;-78
2023/10/28 11:04:05;;;;;;;0.10;0.10;;;;;;;;;;5105755;28;20048;-79
2023/10/28 11:06:33;;;;;;;0.10;0.10;;;;;;;;;;5100324;27;20056;-79
2023/10/28 11:09:03;;;;;;;0.10;0.10;;;;;;;;;;5098093;28;20056;-78
2023/10/28 11:11:30;;;;;;;0.10;0.10;;;;;;;;;;5103153;28;20053;-79
2023/10/28 11:13:56;;;;;;;0.10;0.10;;;;;;;;;;5099130;28;20056;-79
2023/10/28 11:16:27;;;;;;;0.28;0.22;;;;;;;;;;5106927;27;20141;-79
2023/10/28 11:18:53;;;;;;;0.20;0.20;;;;;;;;;;5108479;27;20058;-78
2023/10/28 11:21:23;;;;;;;0.43;0.43;;;;;;;;;;5095362;28;20059;-78
2023/10/28 11:23:50;;;;;;;0.10;0.10;;;;;;;;;;5102617;27;20048;-78
2023/10/28 11:26:17;;;;;;;0.10;0.10;;;;;;;;;;5102611;27;20250;-78
2023/10/28 11:28:47;;;;;;;0.10;0.10;;;;;;;;;;5098851;27;20059;-79
2023/10/28 11:31:13;;;;;;;0.10;0.10;;;;;;;;;;5096748;28;20151;-79
2023/10/28 11:33:40;;;;;;;0.10;0.10;;;;;;;;;;5097072;27;20087;-78
2023/10/28 11:36:08;;;;;;;0.10;0.10;;;;;;;;;;5097276;28;20226;-79
2023/10/28 11:38:34;;;;;;;0.10;0.10;;;;;;;;;;5092118;28;20052;-79
2023/10/28 11:41:07;;;;;;;0.10;0.10;;;;;;;;;;5095938;28;20129;-79
2023/10/28 11:43:34;;;;;;;0.10;0.10;;;;;;;;;;5097918;28;20142;-79
2023/10/28 11:46:02;;;;;;;0.10;0.10;;;;;;;;;;5098069;28;20116;-79
2023/10/28 11:48:33;;;;;;;0.20;0.20;;;;;;;;;;5097171;27;20058;-79
2023/10/28 11:51:03;;;;;;;0.10;0.10;;;;;;;;;;5096926;28;20055;-79
2023/10/28 11:53:33;;;;;;;4.72;0.35;;;;;;;;;;5100312;28;20044;-79
2023/10/28 11:56:00;;;;;;;0.10;0.10;;;;;;;;;;5097490;28;20083;-79
2023/10/28 11:58:26;;;;;;;0.10;0.10;;;;;;;;;;5097605;27;20488;-79
2023/10/28 12:00:55;;;;;;;0.85;0.43;;;;;;;;;;5102409;27;20513;-79
2023/10/28 12:03:25;;;;;;;0.10;0.10;;;;;;;;;;5096927;28;20055;-79
2023/10/28 12:05:54;;;;;;;0.10;0.10;;;;;;;;;;5094831;27;20059;-79
2023/10/28 12:08:20;;;;;;;0.10;0.10;;;;;;;;;;5094464;28;20543;-79
2023/10/28 12:10:47;;;;;;;0.10;0.10;;;;;;;;;;5093396;28;20741;-79
2023/10/28 12:13:13;;;;;;;0.13;0.13;;;;;;;;;;5091073;28;20644;-79
2023/10/28 12:15:40;;;;;;;0.10;0.10;;;;;;;;;;5095847;27;20227;-79
2023/10/28 12:18:07;;;;;;;0.30;0.30;;;;;;;;;;5098804;28;20048;-79
2023/10/28 12:20:35;;;;;;;0.10;0.10;;;;;;;;;;5098183;28;20048;-79
2023/10/28 12:23:01;;;;;;;0.10;0.10;;;;;;;;;;5101066;27;20060;-79
2023/10/28 12:25:28;;;;;;;4.50;0.85;;;;;;;;;;5098015;27;20110;-79
2023/10/28 12:27:54;;;;;;;0.22;0.22;;;;;;;;;;5092981;27;20064;-79
2023/10/28 12:30:21;;;;;;;0.22;0.20;;;;;;;;;;5101614;28;20048;-79
2023/10/28 12:32:49;;;;;;;0.68;0.38;;;;;;;;;;5095153;27;20055;-79
2023/10/28 12:35:16;;;;;;;1.40;1.38;;;;;;;;;;5101054;28;20052;-79
2023/10/28 12:37:42;;;;;;;0.10;0.10;;;;;;;;;;5098419;28;21807;-78
2023/10/28 12:40:09;;;;;;;0.10;0.10;;;;;;;;;;5096582;27;20063;-79
2023/10/28 12:42:36;;;;;;;0.10;0.10;;;;;;;;;;5095349;27;20380;-78
2023/10/28 12:45:06;;;;;;;0.10;0.10;;;;;;;;;;5089495;28;20056;-78
2023/10/28 12:47:33;;;;;;;0.10;0.10;;;;;;;;;;5103829;27;20109;-78
2023/10/28 12:50:03;;;;;;;0.10;0.10;;;;;;;;;;5099792;28;20055;-78
2023/10/28 12:52:30;;;;;;;0.10;0.10;;;;;;;;;;5097914;27;20058;-78
2023/10/28 12:55:00;;;;;;;0.10;0.10;;;;;;;;;;5102210;28;20052;-79
2023/10/28 12:57:27;;;;;;;0.10;0.10;;;;;;;;;;5100091;28;20052;-79
2023/10/28 12:59:53;;;;;;;0.13;0.13;;;;;;;;;;5107601;27;20091;-79
2023/10/28 13:02:20;;;;;;;0.30;0.25;;;;;;;;;;5105395;28;20103;-79
2023/10/28 13:04:46;;;;;;;0.10;0.10;;;;;;;;;;5105478;28;20063;-79
2023/10/28 13:07:13;;;;;;;0.10;0.10;;;;;;;;;;5100408;28;20123;-78
2023/10/28 13:09:39;;;;;;;0.10;0.10;;;;;;;;;;5109279;28;20115;-80
2023/10/28 13:12:06;;;;;;;0.10;0.10;;;;;;;;;;5099508;27;20099;-79
2023/10/28 13:14:32;;;;;;;0.10;0.10;;;;;;;;;;5107904;27;20052;-78
2023/10/28 13:17:02;;;;;;;0.10;0.10;;;;;;;;;;5106303;28;20053;-79
2023/10/28 13:19:29;;;;;;;0.10;0.10;;;;;;;;;;5100662;28;20060;-79
2023/10/28 13:21:55;;;;;;;0.10;0.10;;;;;;;;;;5104262;27;20059;-78
2023/10/28 13:24:23;;;;;;;0.85;0.30;;;;;;;;;;5101961;28;20134;-78
2023/10/28 13:26:49;;;;;;;0.10;0.10;;;;;;;;;;5098187;28;20063;-79
2023/10/28 13:29:17;;;;;;;0.15;0.15;;;;;;;;;;5103799;28;20056;-79
2023/10/28 13:31:44;;;;;;;0.10;0.10;;;;;;;;;;5108567;27;20575;-79
2023/10/28 13:34:10;;;;;;;0.20;0.20;;;;;;;;;;5105443;28;20139;-78
2023/10/28 13:36:37;;;;;;;0.20;0.20;;;;;;;;;;5097861;27;20055;-79
2023/10/28 13:39:04;;;;;;;0.10;0.10;;;;;;;;;;5100832;27;20131;-79
2023/10/28 13:41:30;;;;;;;0.10;0.10;;;;;;;;;;5106251;27;20266;-78
2023/10/28 13:43:57;;;;;;;0.10;0.10;;;;;;;;;;5101345;28;20052;-78
2023/10/28 13:46:24;;;;;;;0.10;0.10;;;;;;;;;;5107801;28;20564;-79
2023/10/28 13:48:51;;;;;;;0.20;0.20;;;;;;;;;;5108828;27;20556;-78
2023/10/28 13:51:18;;;;;;;0.10;0.10;;;;;;;;;;5101555;28;20147;-79
2023/10/28 13:53:44;;;;;;;0.10;0.10;;;;;;;;;;5099434;28;20059;-78
2023/10/28 13:56:11;;;;;;;0.10;0.10;;;;;;;;;;5101581;27;20044;-78
2023/10/28 13:58:37;;;;;;;0.25;0.25;;;;;;;;;;5107256;28;20167;-78
2023/10/28 14:01:07;;;;;;;0.10;0.10;;;;;;;;;;5102395;28;20965;-78
2023/10/28 14:03:34;;;;;;;0.30;0.30;;;;;;;;;;5106056;28;20099;-78
2023/10/28 14:06:04;;;;;;;0.10;0.10;;;;;;;;;;5106930;27;20173;-78
2023/10/28 14:08:31;;;;;;;0.10;0.10;;;;;;;;;;5106724;27;20135;-80
2023/10/28 14:10:57;;;;;;;0.10;0.10;;;;;;;;;;5103063;27;20135;-78
2023/10/28 14:13:27;;;;;;;0.10;0.10;;;;;;;;;;5112723;27;20060;-79
2023/10/28 14:15:53;;;;;;;0.10;0.10;;;;;;;;;;5099728;28;20056;-79
2023/10/28 14:18:20;;;;;;;0.15;0.15;;;;;;;;;;5102723;28;20056;-79
2023/10/28 14:20:48;;;;;;;0.10;0.10;;;;;;;;;;5105680;28;20129;-79
2023/10/28 14:23:14;;;;;;;0.10;0.10;;;;;;;;;;5100805;27;20135;-79
2023/10/28 14:25:41;;;;;;;0.90;0.90;;;;;;;;;;5104037;28;20583;-78
2023/10/28 14:28:08;;;;;;;0.10;0.10;;;;;;;;;;5096680;28;20048;-80
2023/10/28 14:30:34;;;;;;;0.10;0.10;;;;;;;;;;5095198;28;20052;-79
2023/10/28 14:33:01;;;;;;;0.73;0.73;;;;;;;;;;5097877;22;20083;-77
2023/10/28 14:35:27;;;;;;;0.10;0.10;;;;;;;;;;5069451;28;20122;-77
2023/10/28 14:37:55;;;;;;;0.10;0.10;;;;;;;;;;5079293;28;20049;-78
2023/10/28 14:40:21;;;;;;;0.20;0.20;;;;;;;;;;5083117;28;20058;-78
2023/10/28 14:42:48;;;;;;;0.10;0.10;;;;;;;;;;5082134;28;20080;-78
2023/10/28 14:45:14;;;;;;;0.10;0.10;;;;;;;;;;5075868;28;20056;-80